sensor_id;sensor_type;location;lat;lon;timestamp;P1;durP1;ratioP1;P2;durP2;ratioP2
39324;SDS011;25037;49.488;9.900;2022-12-07T00:01:07;6.60;;;4.60;;
39324;SDS011;25037;49.488;9.900;2022-12-07T00:03:36;7.60;;;5.07;;
39324;SDS011;25037;49.488;9.900;2022-12-07T00:06:03;6.60;;;5.00;;
39324;SDS011;25037;49.488;9.900;2022-12-07T00:08:30;8.18;;;5.28;;
39324;SDS011;25037;49.488;9.900;2022-12-07T00:11:03;6.85;;;4.75;;
39324;SDS011;25037;49.488;9.900;2022-12-07T00:13:34;7.50;;;4.70;;
39324;SDS011;25037;49.488;9.900;2022-12-07T00:16:11;8.35;;;5.88;;
39324;SDS011;25037;49.488;9.900;2022-12-07T00:18:38;8.43;;;5.15;;
39324;SDS011;25037;49.488;9.900;2022-12-07T00:21:09;7.30;;;5.40;;
39324;SDS011;25037;49.488;9.900;2022-12-07T00:23:43;6.57;;;5.25;;
39324;SDS011;25037;49.488;9.900;2022-12-07T00:26:19;7.50;;;5.60;;
39324;SDS011;25037;49.488;9.900;2022-12-07T00:28:47;7.05;;;5.20;;
39324;SDS011;25037;49.488;9.900;2022-12-07T00:31:15;7.68;;;4.82;;
39324;SDS011;25037;49.488;9.900;2022-12-07T00:33:42;7.25;;;5.25;;
39324;SDS011;25037;49.488;9.900;2022-12-07T00:36:09;7.85;;;5.43;;
39324;SDS011;25037;49.488;9.900;2022-12-07T00:38:36;9.38;;;5.88;;
39324;SDS011;25037;49.488;9.900;2022-12-07T00:41:04;8.45;;;5.75;;
39324;SDS011;25037;49.488;9.900;2022-12-07T00:43:38;7.53;;;5.70;;
39324;SDS011;25037;49.488;9.900;2022-12-07T00:46:04;8.18;;;6.20;;
39324;SDS011;25037;49.488;9.900;2022-12-07T00:48:30;8.35;;;5.70;;
39324;SDS011;25037;49.488;9.900;2022-12-07T00:50:56;10.40;;;6.20;;
39324;SDS011;25037;49.488;9.900;2022-12-07T00:53:22;7.78;;;6.10;;
39324;SDS011;25037;49.488;9.900;2022-12-07T00:55:48;8.05;;;5.50;;
39324;SDS011;25037;49.488;9.900;2022-12-07T00:58:14;8.88;;;6.15;;
39324;SDS011;25037;49.488;9.900;2022-12-07T01:00:41;8.30;;;5.25;;
39324;SDS011;25037;49.488;9.900;2022-12-07T01:03:08;8.60;;;6.03;;
39324;SDS011;25037;49.488;9.900;2022-12-07T01:05:35;7.72;;;5.60;;
39324;SDS011;25037;49.488;9.900;2022-12-07T01:08:01;8.75;;;6.13;;
39324;SDS011;25037;49.488;9.900;2022-12-07T01:10:27;8.98;;;5.88;;
39324;SDS011;25037;49.488;9.900;2022-12-07T01:12:53;8.68;;;5.65;;
39324;SDS011;25037;49.488;9.900;2022-12-07T01:15:19;9.65;;;6.32;;
39324;SDS011;25037;49.488;9.900;2022-12-07T01:17:44;8.38;;;5.82;;
39324;SDS011;25037;49.488;9.900;2022-12-07T01:20:10;8.27;;;5.72;;
39324;SDS011;25037;49.488;9.900;2022-12-07T01:22:37;10.20;;;6.72;;
39324;SDS011;25037;49.488;9.900;2022-12-07T01:25:04;9.50;;;6.60;;
39324;SDS011;25037;49.488;9.900;2022-12-07T01:27:30;8.57;;;5.85;;
39324;SDS011;25037;49.488;9.900;2022-12-07T01:29:55;9.93;;;6.38;;
39324;SDS011;25037;49.488;9.900;2022-12-07T01:32:21;9.45;;;6.00;;
39324;SDS011;25037;49.488;9.900;2022-12-07T01:34:47;9.30;;;6.07;;
39324;SDS011;25037;49.488;9.900;2022-12-07T01:37:23;7.82;;;5.47;;
39324;SDS011;25037;49.488;9.900;2022-12-07T01:39:49;9.40;;;6.65;;
39324;SDS011;25037;49.488;9.900;2022-12-07T01:42:16;8.52;;;5.78;;
39324;SDS011;25037;49.488;9.900;2022-12-07T01:47:46;9.18;;;6.40;;
39324;SDS011;25037;49.488;9.900;2022-12-07T01:50:18;11.70;;;6.90;;
39324;SDS011;25037;49.488;9.900;2022-12-07T01:52:44;9.55;;;6.57;;
39324;SDS011;25037;49.488;9.900;2022-12-07T01:55:13;9.80;;;6.70;;
39324;SDS011;25037;49.488;9.900;2022-12-07T01:57:41;10.50;;;7.10;;
39324;SDS011;25037;49.488;9.900;2022-12-07T02:00:12;12.10;;;7.20;;
39324;SDS011;25037;49.488;9.900;2022-12-07T02:02:53;10.48;;;7.35;;
39324;SDS011;25037;49.488;9.900;2022-12-07T02:05:26;11.35;;;7.63;;
39324;SDS011;25037;49.488;9.900;2022-12-07T02:07:53;9.95;;;6.88;;
39324;SDS011;25037;49.488;9.900;2022-12-07T02:10:22;13.07;;;8.25;;
39324;SDS011;25037;49.488;9.900;2022-12-07T02:12:51;10.95;;;7.50;;
39324;SDS011;25037;49.488;9.900;2022-12-07T02:15:25;11.30;;;7.43;;
39324;SDS011;25037;49.488;9.900;2022-12-07T02:18:09;14.45;;;7.97;;
39324;SDS011;25037;49.488;9.900;2022-12-07T02:20:59;14.38;;;9.32;;
39324;SDS011;25037;49.488;9.900;2022-12-07T02:32:04;12.70;;;8.00;;
39324;SDS011;25037;49.488;9.900;2022-12-07T02:39:52;11.57;;;7.53;;
39324;SDS011;25037;49.488;9.900;2022-12-07T02:42:25;12.32;;;7.78;;
39324;SDS011;25037;49.488;9.900;2022-12-07T02:44:58;12.15;;;8.27;;
39324;SDS011;25037;49.488;9.900;2022-12-07T02:47:26;12.60;;;8.27;;
39324;SDS011;25037;49.488;9.900;2022-12-07T02:52:21;13.20;;;8.55;;
39324;SDS011;25037;49.488;9.900;2022-12-07T02:54:47;10.70;;;7.55;;
39324;SDS011;25037;49.488;9.900;2022-12-07T02:57:22;11.52;;;8.30;;
39324;SDS011;25037;49.488;9.900;2022-12-07T03:00:04;10.90;;;7.45;;
39324;SDS011;25037;49.488;9.900;2022-12-07T03:05:20;11.68;;;8.07;;
39324;SDS011;25037;49.488;9.900;2022-12-07T03:07:55;11.82;;;7.20;;
39324;SDS011;25037;49.488;9.900;2022-12-07T03:13:25;11.70;;;8.05;;
39324;SDS011;25037;49.488;9.900;2022-12-07T03:18:43;11.05;;;7.50;;
39324;SDS011;25037;49.488;9.900;2022-12-07T03:21:17;11.40;;;7.97;;
39324;SDS011;25037;49.488;9.900;2022-12-07T03:23:47;12.32;;;7.97;;
39324;SDS011;25037;49.488;9.900;2022-12-07T03:26:16;12.10;;;8.23;;
39324;SDS011;25037;49.488;9.900;2022-12-07T03:28:45;13.20;;;8.25;;
39324;SDS011;25037;49.488;9.900;2022-12-07T03:31:23;10.20;;;7.72;;
39324;SDS011;25037;49.488;9.900;2022-12-07T03:33:57;13.82;;;8.93;;
39324;SDS011;25037;49.488;9.900;2022-12-07T03:36:34;10.85;;;7.78;;
39324;SDS011;25037;49.488;9.900;2022-12-07T03:41:46;12.38;;;8.60;;
39324;SDS011;25037;49.488;9.900;2022-12-07T03:44:12;14.50;;;9.23;;
39324;SDS011;25037;49.488;9.900;2022-12-07T03:46:51;12.55;;;8.23;;
39324;SDS011;25037;49.488;9.900;2022-12-07T03:49:26;13.52;;;9.20;;
39324;SDS011;25037;49.488;9.900;2022-12-07T03:54:49;12.60;;;8.25;;
39324;SDS011;25037;49.488;9.900;2022-12-07T03:57:18;13.45;;;9.13;;
39324;SDS011;25037;49.488;9.900;2022-12-07T03:59:46;13.63;;;8.63;;
39324;SDS011;25037;49.488;9.900;2022-12-07T04:02:13;12.82;;;8.82;;
39324;SDS011;25037;49.488;9.900;2022-12-07T04:04:39;13.45;;;8.82;;
39324;SDS011;25037;49.488;9.900;2022-12-07T04:07:05;12.77;;;8.77;;
39324;SDS011;25037;49.488;9.900;2022-12-07T04:09:30;12.30;;;8.90;;
39324;SDS011;25037;49.488;9.900;2022-12-07T04:11:56;12.13;;;8.25;;
39324;SDS011;25037;49.488;9.900;2022-12-07T04:14:22;14.95;;;9.20;;
39324;SDS011;25037;49.488;9.900;2022-12-07T04:16:52;15.05;;;9.20;;
39324;SDS011;25037;49.488;9.900;2022-12-07T04:19:22;14.77;;;9.52;;
39324;SDS011;25037;49.488;9.900;2022-12-07T04:21:49;13.43;;;8.43;;
39324;SDS011;25037;49.488;9.900;2022-12-07T04:24:15;13.23;;;9.45;;
39324;SDS011;25037;49.488;9.900;2022-12-07T04:26:42;14.05;;;9.15;;
39324;SDS011;25037;49.488;9.900;2022-12-07T04:29:08;16.23;;;10.23;;
39324;SDS011;25037;49.488;9.900;2022-12-07T04:31:34;14.27;;;9.23;;
39324;SDS011;25037;49.488;9.900;2022-12-07T04:34:00;14.35;;;9.75;;
39324;SDS011;25037;49.488;9.900;2022-12-07T04:36:26;13.65;;;9.80;;
39324;SDS011;25037;49.488;9.900;2022-12-07T04:38:52;14.40;;;9.70;;
39324;SDS011;25037;49.488;9.900;2022-12-07T04:41:19;15.40;;;10.00;;
39324;SDS011;25037;49.488;9.900;2022-12-07T04:43:52;15.80;;;9.43;;
39324;SDS011;25037;49.488;9.900;2022-12-07T04:46:28;16.05;;;10.45;;
39324;SDS011;25037;49.488;9.900;2022-12-07T04:48:56;15.98;;;10.15;;
39324;SDS011;25037;49.488;9.900;2022-12-07T04:51:23;16.92;;;10.52;;
39324;SDS011;25037;49.488;9.900;2022-12-07T04:53:51;14.95;;;10.63;;
39324;SDS011;25037;49.488;9.900;2022-12-07T04:56:18;17.23;;;11.25;;
39324;SDS011;25037;49.488;9.900;2022-12-07T04:58:44;16.23;;;10.88;;
39324;SDS011;25037;49.488;9.900;2022-12-07T05:01:11;15.07;;;10.00;;
39324;SDS011;25037;49.488;9.900;2022-12-07T05:03:38;18.17;;;11.07;;
39324;SDS011;25037;49.488;9.900;2022-12-07T05:06:04;17.40;;;11.15;;
39324;SDS011;25037;49.488;9.900;2022-12-07T05:08:32;15.95;;;11.40;;
39324;SDS011;25037;49.488;9.900;2022-12-07T05:10:58;18.30;;;11.65;;
39324;SDS011;25037;49.488;9.900;2022-12-07T05:13:24;16.65;;;11.43;;
39324;SDS011;25037;49.488;9.900;2022-12-07T05:15:50;19.48;;;11.77;;
39324;SDS011;25037;49.488;9.900;2022-12-07T05:18:15;18.08;;;12.70;;
39324;SDS011;25037;49.488;9.900;2022-12-07T05:20:42;18.92;;;12.15;;
39324;SDS011;25037;49.488;9.900;2022-12-07T05:23:08;20.05;;;12.50;;
39324;SDS011;25037;49.488;9.900;2022-12-07T05:25:34;21.45;;;13.05;;
39324;SDS011;25037;49.488;9.900;2022-12-07T05:28:00;19.15;;;12.93;;
39324;SDS011;25037;49.488;9.900;2022-12-07T05:30:25;18.95;;;12.63;;
39324;SDS011;25037;49.488;9.900;2022-12-07T05:32:51;19.58;;;12.40;;
39324;SDS011;25037;49.488;9.900;2022-12-07T05:35:17;20.45;;;13.05;;
39324;SDS011;25037;49.488;9.900;2022-12-07T05:37:43;23.20;;;14.52;;
39324;SDS011;25037;49.488;9.900;2022-12-07T05:40:09;20.77;;;13.18;;
39324;SDS011;25037;49.488;9.900;2022-12-07T05:42:35;20.58;;;13.45;;
39324;SDS011;25037;49.488;9.900;2022-12-07T05:45:01;21.10;;;12.98;;
39324;SDS011;25037;49.488;9.900;2022-12-07T05:47:26;20.85;;;13.07;;
39324;SDS011;25037;49.488;9.900;2022-12-07T05:49:52;20.42;;;13.57;;
39324;SDS011;25037;49.488;9.900;2022-12-07T05:52:18;18.48;;;12.32;;
39324;SDS011;25037;49.488;9.900;2022-12-07T05:54:43;22.02;;;13.07;;
39324;SDS011;25037;49.488;9.900;2022-12-07T05:57:09;21.00;;;13.25;;
39324;SDS011;25037;49.488;9.900;2022-12-07T05:59:34;21.48;;;12.27;;
39324;SDS011;25037;49.488;9.900;2022-12-07T06:02:06;19.92;;;12.80;;
39324;SDS011;25037;49.488;9.900;2022-12-07T06:04:37;19.75;;;12.30;;
39324;SDS011;25037;49.488;9.900;2022-12-07T06:07:05;21.17;;;12.13;;
39324;SDS011;25037;49.488;9.900;2022-12-07T06:09:32;17.80;;;11.85;;
39324;SDS011;25037;49.488;9.900;2022-12-07T06:11:58;18.60;;;11.57;;
39324;SDS011;25037;49.488;9.900;2022-12-07T06:14:42;19.80;;;11.68;;
39324;SDS011;25037;49.488;9.900;2022-12-07T06:17:08;17.13;;;11.93;;
39324;SDS011;25037;49.488;9.900;2022-12-07T06:19:34;18.58;;;11.45;;
39324;SDS011;25037;49.488;9.900;2022-12-07T06:22:00;18.27;;;11.10;;
39324;SDS011;25037;49.488;9.900;2022-12-07T06:24:27;17.25;;;11.55;;
39324;SDS011;25037;49.488;9.900;2022-12-07T06:26:53;16.55;;;11.68;;
39324;SDS011;25037;49.488;9.900;2022-12-07T06:29:18;17.20;;;12.00;;
39324;SDS011;25037;49.488;9.900;2022-12-07T06:31:44;16.50;;;11.13;;
39324;SDS011;25037;49.488;9.900;2022-12-07T06:34:11;20.65;;;12.95;;
39324;SDS011;25037;49.488;9.900;2022-12-07T06:36:38;18.05;;;11.38;;
39324;SDS011;25037;49.488;9.900;2022-12-07T06:39:04;17.23;;;11.63;;
39324;SDS011;25037;49.488;9.900;2022-12-07T06:41:31;16.98;;;11.65;;
39324;SDS011;25037;49.488;9.900;2022-12-07T06:43:57;16.48;;;11.27;;
39324;SDS011;25037;49.488;9.900;2022-12-07T06:46:22;16.83;;;10.98;;
39324;SDS011;25037;49.488;9.900;2022-12-07T06:48:49;14.68;;;10.38;;
39324;SDS011;25037;49.488;9.900;2022-12-07T06:51:16;15.18;;;10.40;;
39324;SDS011;25037;49.488;9.900;2022-12-07T06:53:41;17.60;;;11.25;;
39324;SDS011;25037;49.488;9.900;2022-12-07T06:56:07;16.50;;;11.40;;
39324;SDS011;25037;49.488;9.900;2022-12-07T06:58:33;16.80;;;11.18;;
39324;SDS011;25037;49.488;9.900;2022-12-07T07:00:58;18.08;;;11.15;;
39324;SDS011;25037;49.488;9.900;2022-12-07T07:03:24;18.75;;;11.20;;
39324;SDS011;25037;49.488;9.900;2022-12-07T07:05:49;16.42;;;11.07;;
39324;SDS011;25037;49.488;9.900;2022-12-07T07:08:15;17.67;;;11.75;;
39324;SDS011;25037;49.488;9.900;2022-12-07T07:10:40;16.60;;;11.25;;
39324;SDS011;25037;49.488;9.900;2022-12-07T07:13:06;14.82;;;10.25;;
39324;SDS011;25037;49.488;9.900;2022-12-07T07:15:32;15.32;;;9.88;;
39324;SDS011;25037;49.488;9.900;2022-12-07T07:17:59;16.92;;;11.57;;
39324;SDS011;25037;49.488;9.900;2022-12-07T07:20:25;14.65;;;10.13;;
39324;SDS011;25037;49.488;9.900;2022-12-07T07:22:50;16.38;;;10.60;;
39324;SDS011;25037;49.488;9.900;2022-12-07T07:25:19;14.13;;;10.10;;
39324;SDS011;25037;49.488;9.900;2022-12-07T07:27:44;16.75;;;10.73;;
39324;SDS011;25037;49.488;9.900;2022-12-07T07:30:10;14.20;;;9.90;;
39324;SDS011;25037;49.488;9.900;2022-12-07T07:32:36;14.95;;;9.95;;
39324;SDS011;25037;49.488;9.900;2022-12-07T07:35:01;16.35;;;10.45;;
39324;SDS011;25037;49.488;9.900;2022-12-07T07:37:28;15.48;;;9.73;;
39324;SDS011;25037;49.488;9.900;2022-12-07T07:39:53;14.55;;;10.18;;
39324;SDS011;25037;49.488;9.900;2022-12-07T07:42:19;14.90;;;9.93;;
39324;SDS011;25037;49.488;9.900;2022-12-07T07:44:44;14.02;;;9.18;;
39324;SDS011;25037;49.488;9.900;2022-12-07T07:47:10;14.63;;;9.45;;
39324;SDS011;25037;49.488;9.900;2022-12-07T07:49:36;13.07;;;9.05;;
39324;SDS011;25037;49.488;9.900;2022-12-07T07:52:01;12.23;;;8.63;;
39324;SDS011;25037;49.488;9.900;2022-12-07T07:54:27;12.30;;;8.93;;
39324;SDS011;25037;49.488;9.900;2022-12-07T07:56:52;12.43;;;9.10;;
39324;SDS011;25037;49.488;9.900;2022-12-07T07:59:18;13.55;;;9.57;;
39324;SDS011;25037;49.488;9.900;2022-12-07T08:01:44;12.38;;;8.48;;
39324;SDS011;25037;49.488;9.900;2022-12-07T08:04:09;12.90;;;8.73;;
39324;SDS011;25037;49.488;9.900;2022-12-07T08:06:35;12.55;;;8.52;;
39324;SDS011;25037;49.488;9.900;2022-12-07T08:09:01;11.45;;;7.88;;
39324;SDS011;25037;49.488;9.900;2022-12-07T08:11:27;12.95;;;8.38;;
39324;SDS011;25037;49.488;9.900;2022-12-07T08:13:53;13.70;;;8.70;;
39324;SDS011;25037;49.488;9.900;2022-12-07T08:16:18;12.50;;;8.52;;
39324;SDS011;25037;49.488;9.900;2022-12-07T08:18:44;13.13;;;8.85;;
39324;SDS011;25037;49.488;9.900;2022-12-07T08:21:11;14.10;;;9.30;;
39324;SDS011;25037;49.488;9.900;2022-12-07T08:23:38;12.23;;;8.07;;
39324;SDS011;25037;49.488;9.900;2022-12-07T08:26:05;13.10;;;8.40;;
39324;SDS011;25037;49.488;9.900;2022-12-07T08:28:39;11.85;;;8.38;;
39324;SDS011;25037;49.488;9.900;2022-12-07T08:31:07;10.85;;;7.78;;
39324;SDS011;25037;49.488;9.900;2022-12-07T08:33:36;12.45;;;8.23;;
39324;SDS011;25037;49.488;9.900;2022-12-07T08:36:05;12.77;;;8.77;;
39324;SDS011;25037;49.488;9.900;2022-12-07T08:38:36;10.50;;;7.85;;
39324;SDS011;25037;49.488;9.900;2022-12-07T08:41:02;13.02;;;8.50;;
39324;SDS011;25037;49.488;9.900;2022-12-07T08:43:28;13.05;;;8.93;;
39324;SDS011;25037;49.488;9.900;2022-12-07T08:46:09;11.65;;;7.93;;
39324;SDS011;25037;49.488;9.900;2022-12-07T08:51:20;11.98;;;8.02;;
39324;SDS011;25037;49.488;9.900;2022-12-07T08:53:47;10.02;;;7.95;;
39324;SDS011;25037;49.488;9.900;2022-12-07T08:56:14;14.13;;;8.15;;
39324;SDS011;25037;49.488;9.900;2022-12-07T08:58:40;10.52;;;7.85;;
39324;SDS011;25037;49.488;9.900;2022-12-07T09:01:06;11.75;;;8.43;;
39324;SDS011;25037;49.488;9.900;2022-12-07T09:03:31;12.18;;;8.88;;
39324;SDS011;25037;49.488;9.900;2022-12-07T09:05:57;11.98;;;8.27;;
39324;SDS011;25037;49.488;9.900;2022-12-07T09:08:25;10.20;;;7.32;;
39324;SDS011;25037;49.488;9.900;2022-12-07T09:10:55;10.77;;;7.43;;
39324;SDS011;25037;49.488;9.900;2022-12-07T09:13:21;10.10;;;7.72;;
39324;SDS011;25037;49.488;9.900;2022-12-07T09:15:46;12.43;;;7.80;;
39324;SDS011;25037;49.488;9.900;2022-12-07T09:18:12;11.43;;;7.45;;
39324;SDS011;25037;49.488;9.900;2022-12-07T09:20:37;10.77;;;6.90;;
39324;SDS011;25037;49.488;9.900;2022-12-07T09:23:05;11.35;;;8.05;;
39324;SDS011;25037;49.488;9.900;2022-12-07T09:25:32;11.55;;;7.35;;
39324;SDS011;25037;49.488;9.900;2022-12-07T09:27:58;11.93;;;7.93;;
39324;SDS011;25037;49.488;9.900;2022-12-07T09:30:24;10.52;;;7.13;;
39324;SDS011;25037;49.488;9.900;2022-12-07T09:32:52;9.02;;;6.97;;
39324;SDS011;25037;49.488;9.900;2022-12-07T09:35:19;11.23;;;7.47;;
39324;SDS011;25037;49.488;9.900;2022-12-07T09:37:45;9.25;;;6.63;;
39324;SDS011;25037;49.488;9.900;2022-12-07T09:40:11;9.23;;;7.00;;
39324;SDS011;25037;49.488;9.900;2022-12-07T09:42:39;11.05;;;7.80;;
39324;SDS011;25037;49.488;9.900;2022-12-07T09:45:15;10.32;;;7.75;;
39324;SDS011;25037;49.488;9.900;2022-12-07T09:47:44;10.60;;;7.50;;
39324;SDS011;25037;49.488;9.900;2022-12-07T09:50:17;12.35;;;8.35;;
39324;SDS011;25037;49.488;9.900;2022-12-07T09:52:46;13.82;;;8.65;;
39324;SDS011;25037;49.488;9.900;2022-12-07T09:55:13;10.43;;;7.50;;
39324;SDS011;25037;49.488;9.900;2022-12-07T09:57:59;10.25;;;7.03;;
39324;SDS011;25037;49.488;9.900;2022-12-07T10:00:25;13.05;;;8.05;;
39324;SDS011;25037;49.488;9.900;2022-12-07T10:02:55;10.38;;;7.30;;
39324;SDS011;25037;49.488;9.900;2022-12-07T10:05:44;12.23;;;7.55;;
39324;SDS011;25037;49.488;9.900;2022-12-07T10:08:11;10.40;;;7.75;;
39324;SDS011;25037;49.488;9.900;2022-12-07T10:10:37;12.10;;;7.43;;
39324;SDS011;25037;49.488;9.900;2022-12-07T10:13:08;11.00;;;8.43;;
39324;SDS011;25037;49.488;9.900;2022-12-07T10:18:48;10.63;;;7.88;;
39324;SDS011;25037;49.488;9.900;2022-12-07T10:21:15;11.23;;;8.10;;
39324;SDS011;25037;49.488;9.900;2022-12-07T10:24:04;12.52;;;7.80;;
39324;SDS011;25037;49.488;9.900;2022-12-07T10:29:15;12.25;;;8.50;;
39324;SDS011;25037;49.488;9.900;2022-12-07T10:31:44;10.98;;;8.07;;
39324;SDS011;25037;49.488;9.900;2022-12-07T10:34:32;13.38;;;8.70;;
39324;SDS011;25037;49.488;9.900;2022-12-07T10:46:06;11.50;;;8.50;;
39324;SDS011;25037;49.488;9.900;2022-12-07T10:56:48;13.55;;;9.02;;
39324;SDS011;25037;49.488;9.900;2022-12-07T10:59:30;14.32;;;8.70;;
39324;SDS011;25037;49.488;9.900;2022-12-07T11:02:21;11.20;;;8.40;;
39324;SDS011;25037;49.488;9.900;2022-12-07T11:05:39;11.00;;;8.25;;
39324;SDS011;25037;49.488;9.900;2022-12-07T11:07:51;12.43;;;8.90;;
39324;SDS011;25037;49.488;9.900;2022-12-07T11:13:16;11.15;;;8.55;;
39324;SDS011;25037;49.488;9.900;2022-12-07T11:18:58;13.15;;;9.32;;
39324;SDS011;25037;49.488;9.900;2022-12-07T11:24:27;11.63;;;8.82;;
39324;SDS011;25037;49.488;9.900;2022-12-07T11:27:24;12.45;;;8.60;;
39324;SDS011;25037;49.488;9.900;2022-12-07T11:32:59;11.18;;;8.25;;
39324;SDS011;25037;49.488;9.900;2022-12-07T11:38:43;12.10;;;8.15;;
39324;SDS011;25037;49.488;9.900;2022-12-07T11:41:22;11.50;;;8.93;;
39324;SDS011;25037;49.488;9.900;2022-12-07T11:44:06;13.07;;;8.88;;
39324;SDS011;25037;49.488;9.900;2022-12-07T11:47:43;13.45;;;9.00;;
39324;SDS011;25037;49.488;9.900;2022-12-07T11:52:09;11.57;;;8.38;;
39324;SDS011;25037;49.488;9.900;2022-12-07T11:55:00;14.65;;;9.95;;
39324;SDS011;25037;49.488;9.900;2022-12-07T11:57:37;13.15;;;9.43;;
39324;SDS011;25037;49.488;9.900;2022-12-07T12:00:13;13.57;;;9.70;;
39324;SDS011;25037;49.488;9.900;2022-12-07T12:02:52;14.43;;;9.73;;
39324;SDS011;25037;49.488;9.900;2022-12-07T12:05:49;13.65;;;9.32;;
39324;SDS011;25037;49.488;9.900;2022-12-07T12:08:19;13.55;;;9.32;;
39324;SDS011;25037;49.488;9.900;2022-12-07T12:16:19;11.73;;;8.55;;
39324;SDS011;25037;49.488;9.900;2022-12-07T12:19:15;14.63;;;9.40;;
39324;SDS011;25037;49.488;9.900;2022-12-07T12:21:43;12.57;;;9.10;;
39324;SDS011;25037;49.488;9.900;2022-12-07T12:24:14;13.80;;;8.95;;
39324;SDS011;25037;49.488;9.900;2022-12-07T12:26:48;12.27;;;8.68;;
39324;SDS011;25037;49.488;9.900;2022-12-07T12:29:26;12.68;;;9.30;;
39324;SDS011;25037;49.488;9.900;2022-12-07T12:32:13;13.43;;;9.20;;
39324;SDS011;25037;49.488;9.900;2022-12-07T12:45:26;10.77;;;7.95;;
39324;SDS011;25037;49.488;9.900;2022-12-07T12:50:40;13.23;;;9.40;;
39324;SDS011;25037;49.488;9.900;2022-12-07T13:00:48;11.57;;;8.20;;
39324;SDS011;25037;49.488;9.900;2022-12-07T13:03:52;13.85;;;9.20;;
39324;SDS011;25037;49.488;9.900;2022-12-07T13:06:41;11.65;;;8.07;;
39324;SDS011;25037;49.488;9.900;2022-12-07T13:09:15;11.65;;;7.97;;
39324;SDS011;25037;49.488;9.900;2022-12-07T13:11:48;13.02;;;8.45;;
39324;SDS011;25037;49.488;9.900;2022-12-07T13:17:02;12.45;;;8.48;;
39324;SDS011;25037;49.488;9.900;2022-12-07T13:25:03;12.32;;;7.90;;
39324;SDS011;25037;49.488;9.900;2022-12-07T13:27:39;11.60;;;8.45;;
39324;SDS011;25037;49.488;9.900;2022-12-07T13:30:09;10.93;;;7.50;;
39324;SDS011;25037;49.488;9.900;2022-12-07T13:32:40;10.77;;;7.80;;
39324;SDS011;25037;49.488;9.900;2022-12-07T13:38:02;10.27;;;7.85;;
39324;SDS011;25037;49.488;9.900;2022-12-07T13:40:39;13.48;;;7.72;;
39324;SDS011;25037;49.488;9.900;2022-12-07T13:43:12;10.32;;;7.78;;
39324;SDS011;25037;49.488;9.900;2022-12-07T13:45:41;10.10;;;7.68;;
39324;SDS011;25037;49.488;9.900;2022-12-07T13:50:53;9.68;;;7.40;;
39324;SDS011;25037;49.488;9.900;2022-12-07T13:53:20;10.40;;;7.57;;
39324;SDS011;25037;49.488;9.900;2022-12-07T13:55:48;11.18;;;7.88;;
39324;SDS011;25037;49.488;9.900;2022-12-07T13:58:14;12.63;;;8.23;;
39324;SDS011;25037;49.488;9.900;2022-12-07T14:00:40;9.82;;;7.63;;
39324;SDS011;25037;49.488;9.900;2022-12-07T14:05:38;10.55;;;7.85;;
39324;SDS011;25037;49.488;9.900;2022-12-07T14:13:27;11.10;;;8.20;;
39324;SDS011;25037;49.488;9.900;2022-12-07T14:18:50;14.00;;;7.72;;
39324;SDS011;25037;49.488;9.900;2022-12-07T14:21:17;11.27;;;7.97;;
39324;SDS011;25037;49.488;9.900;2022-12-07T14:23:45;12.57;;;7.80;;
39324;SDS011;25037;49.488;9.900;2022-12-07T14:26:11;11.57;;;7.90;;
39324;SDS011;25037;49.488;9.900;2022-12-07T14:28:43;13.47;;;8.97;;
39324;SDS011;25037;49.488;9.900;2022-12-07T14:31:12;13.23;;;8.90;;
39324;SDS011;25037;49.488;9.900;2022-12-07T14:33:40;12.48;;;9.10;;
39324;SDS011;25037;49.488;9.900;2022-12-07T14:36:10;12.88;;;8.60;;
39324;SDS011;25037;49.488;9.900;2022-12-07T14:38:37;13.52;;;9.43;;
39324;SDS011;25037;49.488;9.900;2022-12-07T14:41:04;12.93;;;9.45;;
39324;SDS011;25037;49.488;9.900;2022-12-07T14:43:55;12.02;;;7.82;;
39324;SDS011;25037;49.488;9.900;2022-12-07T14:46:21;10.60;;;7.97;;
39324;SDS011;25037;49.488;9.900;2022-12-07T14:48:46;12.27;;;8.98;;
39324;SDS011;25037;49.488;9.900;2022-12-07T14:53:44;14.10;;;9.10;;
39324;SDS011;25037;49.488;9.900;2022-12-07T14:56:13;11.73;;;8.77;;
39324;SDS011;25037;49.488;9.900;2022-12-07T14:58:39;11.50;;;8.25;;
39324;SDS011;25037;49.488;9.900;2022-12-07T15:01:04;12.57;;;8.43;;
39324;SDS011;25037;49.488;9.900;2022-12-07T15:03:30;11.25;;;8.20;;
39324;SDS011;25037;49.488;9.900;2022-12-07T15:05:56;12.95;;;7.70;;
39324;SDS011;25037;49.488;9.900;2022-12-07T15:08:21;12.27;;;8.60;;
39324;SDS011;25037;49.488;9.900;2022-12-07T15:10:47;14.07;;;8.43;;
39324;SDS011;25037;49.488;9.900;2022-12-07T15:13:12;12.73;;;8.85;;
39324;SDS011;25037;49.488;9.900;2022-12-07T15:15:56;13.00;;;8.55;;
39324;SDS011;25037;49.488;9.900;2022-12-07T15:18:22;13.45;;;9.23;;
39324;SDS011;25037;49.488;9.900;2022-12-07T15:20:48;13.35;;;8.73;;
39324;SDS011;25037;49.488;9.900;2022-12-07T15:23:14;13.45;;;9.00;;
39324;SDS011;25037;49.488;9.900;2022-12-07T15:25:44;13.60;;;9.85;;
39324;SDS011;25037;49.488;9.900;2022-12-07T15:28:12;12.35;;;9.38;;
39324;SDS011;25037;49.488;9.900;2022-12-07T15:30:38;14.85;;;9.90;;
39324;SDS011;25037;49.488;9.900;2022-12-07T15:33:05;15.95;;;8.48;;
39324;SDS011;25037;49.488;9.900;2022-12-07T15:35:31;15.25;;;9.95;;
39324;SDS011;25037;49.488;9.900;2022-12-07T15:37:56;14.35;;;8.50;;
39324;SDS011;25037;49.488;9.900;2022-12-07T15:40:22;12.35;;;8.75;;
39324;SDS011;25037;49.488;9.900;2022-12-07T15:42:47;14.77;;;9.85;;
39324;SDS011;25037;49.488;9.900;2022-12-07T15:45:13;12.65;;;9.63;;
39324;SDS011;25037;49.488;9.900;2022-12-07T15:47:39;17.38;;;10.27;;
39324;SDS011;25037;49.488;9.900;2022-12-07T15:50:08;14.63;;;9.60;;
39324;SDS011;25037;49.488;9.900;2022-12-07T15:52:35;12.57;;;9.02;;
39324;SDS011;25037;49.488;9.900;2022-12-07T15:55:01;14.88;;;9.15;;
39324;SDS011;25037;49.488;9.900;2022-12-07T15:57:28;16.33;;;9.60;;
39324;SDS011;25037;49.488;9.900;2022-12-07T15:59:57;16.38;;;8.73;;
39324;SDS011;25037;49.488;9.900;2022-12-07T16:02:22;11.90;;;7.72;;
39324;SDS011;25037;49.488;9.900;2022-12-07T16:04:48;12.52;;;8.43;;
39324;SDS011;25037;49.488;9.900;2022-12-07T16:07:15;13.45;;;8.82;;
39324;SDS011;25037;49.488;9.900;2022-12-07T16:09:42;15.43;;;8.90;;
39324;SDS011;25037;49.488;9.900;2022-12-07T16:12:08;13.60;;;8.63;;
39324;SDS011;25037;49.488;9.900;2022-12-07T16:14:33;16.50;;;8.77;;
39324;SDS011;25037;49.488;9.900;2022-12-07T16:16:59;12.30;;;8.35;;
39324;SDS011;25037;49.488;9.900;2022-12-07T16:19:25;11.40;;;8.30;;
39324;SDS011;25037;49.488;9.900;2022-12-07T16:21:50;12.30;;;8.20;;
39324;SDS011;25037;49.488;9.900;2022-12-07T16:24:16;13.40;;;8.65;;
39324;SDS011;25037;49.488;9.900;2022-12-07T16:26:42;13.27;;;8.63;;
39324;SDS011;25037;49.488;9.900;2022-12-07T16:29:10;12.95;;;8.27;;
39324;SDS011;25037;49.488;9.900;2022-12-07T16:31:37;14.88;;;9.75;;
39324;SDS011;25037;49.488;9.900;2022-12-07T16:34:02;14.90;;;9.98;;
39324;SDS011;25037;49.488;9.900;2022-12-07T16:36:28;11.82;;;8.45;;
39324;SDS011;25037;49.488;9.900;2022-12-07T16:38:54;16.15;;;9.35;;
39324;SDS011;25037;49.488;9.900;2022-12-07T16:41:20;15.48;;;9.27;;
39324;SDS011;25037;49.488;9.900;2022-12-07T16:43:45;13.23;;;8.82;;
39324;SDS011;25037;49.488;9.900;2022-12-07T16:46:12;13.32;;;8.65;;
39324;SDS011;25037;49.488;9.900;2022-12-07T16:48:38;14.30;;;8.20;;
39324;SDS011;25037;49.488;9.900;2022-12-07T16:51:05;14.35;;;8.68;;
39324;SDS011;25037;49.488;9.900;2022-12-07T16:53:33;12.45;;;7.65;;
39324;SDS011;25037;49.488;9.900;2022-12-07T16:56:00;11.70;;;7.88;;